createdAt,value
2022-10-20T00:01:44.976Z,101941.06
2022-10-20T00:04:11.443Z,101936.69
2022-10-20T00:06:37.993Z,101929.75
2022-10-20T00:09:05.429Z,101926.34
2022-10-20T00:11:32.059Z,101928.03
2022-10-20T00:13:59.617Z,101926.16
2022-10-20T00:16:28.602Z,101927.94
2022-10-20T00:18:55.915Z,101922.78
2022-10-20T00:21:24.999Z,101924.56
2022-10-20T00:23:51.876Z,101924.47
2022-10-20T00:26:24.019Z,101921.78
2022-10-20T00:28:51.419Z,101926.97
2022-10-20T00:31:18.979Z,101924.38
2022-10-20T00:33:46.011Z,101923.28
2022-10-20T00:36:14.184Z,101912.03
2022-10-20T00:38:40.670Z,101914.50
2022-10-20T00:41:07.845Z,101899.81
2022-10-20T00:43:48.919Z,101902.19
2022-10-20T00:46:18.471Z,101889.19
2022-10-20T00:48:48.377Z,101889.06
2022-10-20T00:51:16.774Z,101894.16
2022-10-20T00:53:45.331Z,101894.94
2022-10-20T00:56:12.643Z,101881.03
2022-10-20T00:58:39.399Z,101886.31
2022-10-20T01:01:05.913Z,101879.34
2022-10-20T01:03:38.289Z,101881.94
2022-10-20T01:06:04.945Z,101877.53
2022-10-20T01:08:31.538Z,101866.28
2022-10-20T01:11:16.459Z,101863.63
2022-10-20T01:13:59.629Z,101857.56
2022-10-20T01:16:38.977Z,101854.97
2022-10-20T01:19:47.586Z,101848.81
2022-10-20T01:22:42.440Z,101848.81
2022-10-20T01:25:25.544Z,101843.47
2022-10-20T01:28:22.828Z,101829.56
2022-10-20T01:30:54.166Z,101824.28
2022-10-20T01:33:29.705Z,101825.75
2022-10-20T01:36:04.280Z,101824.84
2022-10-20T01:38:33.228Z,101817.00
2022-10-20T01:41:02.756Z,101818.59
2022-10-20T01:43:32.880Z,101825.56
2022-10-20T01:46:00.119Z,101817.00
2022-10-20T01:48:29.844Z,101813.44
2022-10-20T01:50:56.387Z,101806.50
2022-10-20T01:53:22.850Z,101816.81
2022-10-20T01:55:54.391Z,101803.81
2022-10-20T01:58:23.860Z,101798.66
2022-10-20T02:00:51.740Z,101799.34
2022-10-20T02:03:29.927Z,101800.94
2022-10-20T02:06:05.873Z,101796.56
2022-10-20T02:08:46.006Z,101795.66
2022-10-20T02:11:22.517Z,101792.16
2022-10-20T02:13:49.993Z,101783.41
2022-10-20T02:16:22.316Z,101776.44
2022-10-20T02:18:48.977Z,101787.56
2022-10-20T02:25:03.135Z,101780.44
2022-10-20T02:27:33.709Z,101783.00
2022-10-20T02:30:12.228Z,101778.75
2022-10-20T02:32:40.978Z,101783.81
2022-10-20T02:35:10.633Z,101777.84
2022-10-20T02:37:37.244Z,101770.91
2022-10-20T02:40:04.601Z,101767.31
2022-10-20T02:42:31.143Z,101766.31
2022-10-20T02:44:57.710Z,101760.16
2022-10-20T02:47:24.186Z,101754.00
2022-10-20T02:49:50.670Z,101756.56
2022-10-20T02:52:17.125Z,101753.91
2022-10-20T02:54:43.691Z,101765.81
2022-10-20T02:57:10.214Z,101758.78
2022-10-20T02:59:36.674Z,101754.41
2022-10-20T03:02:03.707Z,101748.13
2022-10-20T03:04:30.336Z,101747.13
2022-10-20T03:06:56.786Z,101748.72
2022-10-20T03:09:23.276Z,101747.72
2022-10-20T03:11:49.732Z,101745.06
2022-10-20T03:14:16.215Z,101744.16
2022-10-20T03:16:42.722Z,101741.50
2022-10-20T03:19:11.558Z,101741.38
2022-10-20T03:21:38.548Z,101729.38
2022-10-20T03:24:05.348Z,101725.78
2022-10-20T03:26:31.815Z,101737.69
2022-10-20T03:28:58.527Z,101737.69
2022-10-20T03:31:25.022Z,101734.13
2022-10-20T03:33:51.513Z,101731.44
2022-10-20T03:36:18.025Z,101727.97
2022-10-20T03:38:44.490Z,101727.78
2022-10-20T03:41:11.319Z,101725.19
2022-10-20T03:43:41.178Z,101719.03
2022-10-20T03:46:14.983Z,101715.56
2022-10-20T03:52:37.617Z,101709.38
2022-10-20T03:55:04.758Z,101698.16
2022-10-20T03:57:31.198Z,101694.69
2022-10-20T03:59:57.740Z,101704.13
2022-10-20T04:02:39.381Z,101700.75
2022-10-20T04:05:06.593Z,101704.34
2022-10-20T04:07:33.219Z,101699.97
2022-10-20T04:10:02.203Z,101699.19
2022-10-20T04:12:28.762Z,101694.91
2022-10-20T04:14:55.274Z,101685.50
2022-10-20T04:17:21.796Z,101696.00
2022-10-20T04:19:48.245Z,101698.59
2022-10-20T04:22:14.735Z,101694.31
2022-10-20T04:24:41.286Z,101690.84
2022-10-20T04:27:07.952Z,101690.16
2022-10-20T04:29:34.773Z,101685.69
2022-10-20T04:32:01.228Z,101688.34
2022-10-20T04:34:27.719Z,101676.34
2022-10-20T04:36:54.187Z,101672.78
2022-10-20T04:39:20.859Z,101668.41
2022-10-20T04:41:47.312Z,101651.16
2022-10-20T04:44:13.796Z,101644.19
2022-10-20T04:46:40.217Z,101653.63
2022-10-20T04:49:06.667Z,101650.03
2022-10-20T04:51:33.097Z,101657.69
2022-10-20T04:53:59.544Z,101660.16
2022-10-20T04:56:25.982Z,101661.06
2022-10-20T04:58:56.889Z,101650.72
2022-10-20T05:01:25.967Z,101656.69
2022-10-20T05:03:52.457Z,101658.38
2022-10-20T05:06:19.805Z,101658.38
2022-10-20T05:08:49.129Z,101655.69
2022-10-20T05:11:16.478Z,101651.22
2022-10-20T05:13:43.261Z,101652.13
2022-10-20T05:16:10.178Z,101645.00
2022-10-20T05:18:37.170Z,101650.16
2022-10-20T05:21:17.599Z,101640.63
2022-10-20T05:23:44.563Z,101640.63
2022-10-20T05:26:16.886Z,101626.72
2022-10-20T05:28:45.319Z,101631.88
2022-10-20T05:31:11.770Z,101629.19
2022-10-20T05:33:38.666Z,101619.66
2022-10-20T05:36:13.848Z,101617.97
2022-10-20T05:38:41.566Z,101612.81
2022-10-20T05:41:13.236Z,101613.63
2022-10-20T05:43:39.682Z,101607.56
2022-10-20T05:46:06.883Z,101610.25
2022-10-20T05:48:33.558Z,101599.81
2022-10-20T05:51:13.555Z,101602.41
2022-10-20T05:53:41.679Z,101602.41
2022-10-20T05:56:09.958Z,101611.03
2022-10-20T05:58:36.915Z,101613.63
2022-10-20T06:01:19.240Z,101614.59
2022-10-20T06:03:50.625Z,101611.22
2022-10-20T06:06:18.189Z,101620.75
2022-10-20T06:08:45.222Z,101623.34
2022-10-20T06:11:13.525Z,101625.16
2022-10-20T06:13:39.944Z,101621.66
2022-10-20T06:16:11.629Z,101622.56
2022-10-20T06:18:38.808Z,101627.72
2022-10-20T06:21:07.529Z,101621.78
2022-10-20T06:23:34.365Z,101624.44
2022-10-20T06:26:06.746Z,101619.38
2022-10-20T06:28:34.741Z,101625.63
2022-10-20T06:31:01.634Z,101625.63
2022-10-20T06:33:30.127Z,101621.38
2022-10-20T06:36:03.085Z,101625.63
2022-10-20T06:38:29.511Z,101626.53
2022-10-20T06:40:56.057Z,101619.78
2022-10-20T06:43:22.793Z,101610.44
2022-10-20T06:46:00.647Z,101609.66
2022-10-20T06:48:27.778Z,101609.88
2022-10-20T06:50:58.322Z,101602.22
2022-10-20T06:53:25.711Z,101599.72
2022-10-20T06:55:59.360Z,101591.19
2022-10-20T06:58:26.879Z,101588.78
2022-10-20T07:01:08.325Z,101599.22
2022-10-20T07:03:37.912Z,101598.53
2022-10-20T07:06:05.634Z,101606.28
2022-10-20T07:08:34.264Z,101603.91
2022-10-20T07:11:06.555Z,101607.47
2022-10-20T07:13:34.221Z,101601.50
2022-10-20T07:16:01.072Z,101602.59
2022-10-20T07:18:28.902Z,101602.00
2022-10-20T07:21:00.090Z,101604.88
2022-10-20T07:23:27.680Z,101601.66
2022-10-20T07:26:04.708Z,101600.28
2022-10-20T07:28:31.703Z,101598.69
2022-10-20T07:31:02.900Z,101599.69
2022-10-20T07:33:29.329Z,101600.84
2022-10-20T07:35:55.756Z,101589.84
2022-10-20T07:38:22.158Z,101584.88
2022-10-20T07:40:48.564Z,101591.84
2022-10-20T07:43:14.997Z,101586.84
2022-10-20T07:45:41.462Z,101587.94
2022-10-20T07:48:09.790Z,101581.16
2022-10-20T07:50:37.218Z,101589.88
2022-10-20T07:53:06.269Z,101591.00
2022-10-20T07:55:38.619Z,101591.88
2022-10-20T07:58:05.838Z,101579.94
2022-10-20T08:00:32.366Z,101574.25
2022-10-20T08:02:58.828Z,101572.88
2022-10-20T08:05:25.409Z,101566.09
2022-10-20T08:07:52.253Z,101566.19
2022-10-20T08:10:18.683Z,101563.06
2022-10-20T08:12:45.172Z,101561.38
2022-10-20T08:15:11.658Z,101550.22
2022-10-20T08:17:40.899Z,101550.59
2022-10-20T08:20:21.357Z,101556.84
2022-10-20T08:22:50.060Z,101550.28
2022-10-20T08:25:16.813Z,101543.50
2022-10-20T08:27:43.215Z,101538.66
2022-10-20T08:30:23.545Z,101534.78
2022-10-20T08:32:52.616Z,101532.69
2022-10-20T08:35:19.810Z,101545.19
2022-10-20T08:37:46.286Z,101534.84
2022-10-20T08:40:16.709Z,101531.63
2022-10-20T08:42:45.149Z,101528.59
2022-10-20T08:45:15.924Z,101525.47
2022-10-20T08:47:43.218Z,101512.78
2022-10-20T08:50:12.566Z,101514.91
2022-10-20T08:52:40.874Z,101510.28
2022-10-20T08:55:07.983Z,101503.47
2022-10-20T08:57:36.485Z,101503.00
2022-10-20T09:00:21.478Z,101498.78
2022-10-20T09:02:49.326Z,101504.31
2022-10-20T09:05:19.128Z,101508.94
2022-10-20T09:07:48.470Z,101501.59
2022-10-20T09:10:33.980Z,101498.34
2022-10-20T09:13:01.354Z,101503.88
2022-10-20T09:15:28.499Z,101490.22
2022-10-20T09:18:09.195Z,101486.72
2022-10-20T09:20:44.703Z,101481.78
2022-10-20T09:23:39.518Z,101476.84
2022-10-20T09:26:02.532Z,101470.03
2022-10-20T09:28:42.959Z,101475.56
2022-10-20T09:31:33.174Z,101465.19
2022-10-20T09:33:59.939Z,101464.41
2022-10-20T09:36:30.934Z,101466.63
2022-10-20T09:38:57.630Z,101458.34
2022-10-20T09:41:28.025Z,101471.44
2022-10-20T09:44:01.507Z,101474.91
2022-10-20T09:46:37.639Z,101466.59
2022-10-20T09:49:04.902Z,101452.09
2022-10-20T09:51:31.403Z,101454.13
2022-10-20T09:54:03.925Z,101451.41
2022-10-20T09:56:35.757Z,101452.22
2022-10-20T09:59:04.076Z,101447.22
2022-10-20T10:01:30.548Z,101443.31
2022-10-20T10:04:01.659Z,101441.69
2022-10-20T10:06:32.640Z,101440.38
2022-10-20T10:09:01.730Z,101446.59
2022-10-20T10:11:34.433Z,101440.09
2022-10-20T10:14:01.775Z,101434.09
2022-10-20T10:16:28.454Z,101427.50
2022-10-20T10:18:58.842Z,101418.00
2022-10-20T10:21:25.535Z,101413.97
2022-10-20T10:24:02.488Z,101415.06
2022-10-20T10:26:39.541Z,101415.19
2022-10-20T10:29:16.865Z,101417.16
2022-10-20T10:31:51.606Z,101418.31
2022-10-20T10:34:17.897Z,101414.34
2022-10-20T10:36:44.438Z,101409.34
2022-10-20T10:39:13.552Z,101401.03
2022-10-20T10:42:07.218Z,101397.84
2022-10-20T10:44:43.347Z,101398.94
2022-10-20T10:47:09.658Z,101394.56
2022-10-20T10:50:08.351Z,101381.00
2022-10-20T10:53:01.090Z,101376.97
2022-10-20T10:55:51.340Z,101371.16
2022-10-20T10:58:24.897Z,101360.94
2022-10-20T11:01:09.953Z,101355.94
2022-10-20T11:03:48.329Z,101356.94
2022-10-20T11:06:19.686Z,101366.44
2022-10-20T11:09:10.299Z,101357.91
2022-10-20T11:11:55.350Z,101339.91
2022-10-20T11:14:31.673Z,101333.09
2022-10-20T11:17:07.541Z,101328.84
2022-10-20T11:20:00.474Z,101322.81
2022-10-20T11:22:33.901Z,101312.56
2022-10-20T11:25:22.310Z,101319.66
2022-10-20T11:27:49.198Z,101314.69
2022-10-20T11:30:22.788Z,101315.63
2022-10-20T11:33:15.598Z,101309.69
2022-10-20T11:35:51.138Z,101309.94
2022-10-20T11:38:23.727Z,101312.91
2022-10-20T11:40:59.257Z,101292.97
2022-10-20T11:43:31.038Z,101294.94
2022-10-20T11:45:57.338Z,101288.28
2022-10-20T11:48:40.191Z,101282.38
2022-10-20T11:51:16.695Z,101267.66
2022-10-20T11:54:07.804Z,101267.22
2022-10-20T11:57:02.067Z,101256.31
2022-10-20T11:59:53.184Z,101248.47
2022-10-20T12:02:58.542Z,101244.28
2022-10-20T12:05:46.708Z,101238.34
2022-10-20T12:08:37.615Z,101228.91
2022-10-20T12:11:15.189Z,101223.84
2022-10-20T12:13:58.748Z,101214.59
2022-10-20T12:16:59.314Z,101212.38
2022-10-20T12:19:30.062Z,101204.16
2022-10-20T12:22:14.677Z,101194.16
2022-10-20T12:24:43.426Z,101202.13
2022-10-20T12:27:09.809Z,101203.34
2022-10-20T12:29:36.099Z,101202.81
2022-10-20T12:32:21.317Z,101209.25
2022-10-20T12:34:49.200Z,101213.00
2022-10-20T12:37:20.652Z,101202.91
2022-10-20T12:39:47.319Z,101204.22
2022-10-20T12:42:25.818Z,101196.50
2022-10-20T12:44:52.586Z,101191.34
2022-10-20T12:47:27.534Z,101187.91
2022-10-20T12:50:00.748Z,101178.56
2022-10-20T12:52:30.007Z,101178.03
2022-10-20T12:55:21.962Z,101186.03
2022-10-20T12:57:48.750Z,101185.03
2022-10-20T13:00:24.282Z,101181.59
2022-10-20T13:02:55.305Z,101169.66
2022-10-20T13:05:43.128Z,101172.13
2022-10-20T13:08:19.542Z,101156.03
2022-10-20T13:10:46.737Z,101149.13
2022-10-20T13:13:13.067Z,101152.63
2022-10-20T13:15:42.462Z,101151.84
2022-10-20T13:18:12.017Z,101148.44
2022-10-20T13:20:58.292Z,101136.25
2022-10-20T13:23:39.513Z,101137.13
2022-10-20T13:26:17.009Z,101131.19
2022-10-20T13:28:48.053Z,101138.22
2022-10-20T13:31:19.009Z,101136.44
2022-10-20T13:34:09.757Z,101122.59
2022-10-20T13:36:46.157Z,101123.47
2022-10-20T13:39:22.353Z,101125.22
2022-10-20T13:42:03.942Z,101119.22
2022-10-20T13:44:56.372Z,101114.81
2022-10-20T13:47:34.274Z,101125.31
2022-10-20T13:50:06.116Z,101124.56
2022-10-20T13:52:41.272Z,101125.38
2022-10-20T13:55:08.339Z,101122.81
2022-10-20T13:57:35.600Z,101115.88
2022-10-20T14:00:26.769Z,101119.53
2022-10-20T14:02:54.829Z,101128.97
2022-10-20T14:05:22.582Z,101129.94
2022-10-20T14:07:50.641Z,101130.16
2022-10-20T14:10:22.480Z,101126.72
2022-10-20T14:12:48.934Z,101121.56
2022-10-20T14:15:23.371Z,101119.72
2022-10-20T14:18:02.491Z,101114.56
2022-10-20T14:20:30.186Z,101110.25
2022-10-20T14:22:58.870Z,101104.94
2022-10-20T14:25:26.472Z,101104.09
2022-10-20T14:27:54.341Z,101096.09
2022-10-20T14:30:21.001Z,101086.47
2022-10-20T14:32:48.929Z,101087.34
2022-10-20T14:35:39.421Z,101083.72
2022-10-20T14:38:14.588Z,101075.84
2022-10-20T14:40:41.278Z,101064.50
2022-10-20T14:43:17.424Z,101067.00
2022-10-20T14:45:59.983Z,101060.84
2022-10-20T14:48:32.404Z,101057.31
2022-10-20T14:50:58.884Z,101059.06
2022-10-20T14:53:34.436Z,101058.94
2022-10-20T14:56:02.570Z,101057.22
2022-10-20T14:58:36.888Z,101068.41
2022-10-20T15:01:31.861Z,101066.69
2022-10-20T15:04:04.697Z,101065.75
2022-10-20T15:06:31.531Z,101055.25
2022-10-20T15:08:58.099Z,101058.56
2022-10-20T15:11:26.493Z,101054.28
2022-10-20T15:13:54.429Z,101049.94
2022-10-20T15:16:39.801Z,101052.47
2022-10-20T15:19:35.918Z,101047.97
2022-10-20T15:22:10.302Z,101054.03
2022-10-20T15:24:37.436Z,101052.31
2022-10-20T15:27:04.470Z,101053.97
2022-10-20T15:29:31.768Z,101044.34
2022-10-20T15:31:58.681Z,101043.34
2022-10-20T15:34:25.573Z,101030.41
2022-10-20T15:36:51.994Z,101036.38
2022-10-20T15:39:18.416Z,101035.41
2022-10-20T15:41:45.663Z,101037.16
2022-10-20T15:44:21.284Z,101033.63
2022-10-20T15:46:48.924Z,101035.31
2022-10-20T15:49:15.514Z,101029.25
2022-10-20T15:51:44.484Z,101037.06
2022-10-20T15:54:19.349Z,101035.31
2022-10-20T15:56:45.956Z,101022.25
2022-10-20T15:59:12.359Z,101019.59
2022-10-20T16:01:38.864Z,101016.88
2022-10-20T16:04:28.614Z,101006.31
2022-10-20T16:06:59.067Z,100987.97
2022-10-20T16:09:26.885Z,100977.38
2022-10-20T16:11:53.315Z,100968.69
2022-10-20T16:14:19.824Z,100958.16
2022-10-20T16:16:46.248Z,100959.69
2022-10-20T16:19:14.463Z,100960.50
2022-10-20T16:21:41.366Z,100982.16
2022-10-20T16:24:07.926Z,100998.56
2022-10-20T16:26:34.350Z,100991.59
2022-10-20T16:29:00.787Z,100989.78
2022-10-20T16:31:27.313Z,101004.50
2022-10-20T16:33:53.712Z,100994.00
2022-10-20T16:36:21.576Z,100989.69
2022-10-20T16:38:48.091Z,100996.44
2022-10-20T16:41:15.681Z,101001.69
2022-10-20T16:43:44.631Z,100995.50
2022-10-20T16:46:12.521Z,100989.41
2022-10-20T16:48:41.432Z,100985.88
2022-10-20T16:51:11.573Z,100981.56
2022-10-20T16:53:38.043Z,100985.00
2022-10-20T16:56:05.083Z,100972.00
2022-10-20T16:58:31.538Z,100965.84
2022-10-20T17:01:08.745Z,100962.38
2022-10-20T17:03:36.046Z,100965.72
2022-10-20T17:06:05.395Z,100973.53
2022-10-20T17:08:32.749Z,100967.47
2022-10-20T17:11:01.583Z,100966.63
2022-10-20T17:13:28.790Z,100968.16
2022-10-20T17:15:55.856Z,100971.78
2022-10-20T17:18:23.750Z,100970.81
2022-10-20T17:20:54.174Z,100974.28
2022-10-20T17:23:22.365Z,100966.50
2022-10-20T17:25:50.015Z,100963.84
2022-10-20T17:28:17.026Z,100963.84
2022-10-20T17:30:44.763Z,100950.78
2022-10-20T17:33:11.673Z,100948.13
2022-10-20T17:35:38.432Z,100933.31
2022-10-20T17:38:05.579Z,100941.97
2022-10-20T17:40:38.560Z,100934.09
2022-10-20T17:43:05.038Z,100934.00
2022-10-20T17:45:33.898Z,100944.41
2022-10-20T17:48:02.822Z,100937.41
2022-10-20T17:50:29.240Z,100927.03
2022-10-20T17:52:55.666Z,100922.66
2022-10-20T17:55:22.084Z,100915.63
2022-10-20T17:57:48.484Z,100915.59
2022-10-20T18:00:22.783Z,100916.44
2022-10-20T18:02:53.372Z,100918.19
2022-10-20T18:05:20.879Z,100914.75
2022-10-20T18:07:47.341Z,100905.22
2022-10-20T18:10:14.859Z,100906.16
2022-10-20T18:12:42.283Z,100899.25
2022-10-20T18:15:08.952Z,100897.47
2022-10-20T18:17:35.479Z,100888.78
2022-10-20T18:20:01.964Z,100881.00
2022-10-20T18:22:28.362Z,100881.88
2022-10-20T18:24:54.793Z,100881.00
2022-10-20T18:27:22.148Z,100874.03
2022-10-20T18:29:48.573Z,100886.19
2022-10-20T18:32:15.050Z,100884.41
2022-10-20T18:34:43.452Z,100877.41
2022-10-20T18:37:09.982Z,100893.84
2022-10-20T18:39:36.463Z,100895.47
2022-10-20T18:42:02.883Z,100901.59
2022-10-20T18:47:01.808Z,100906.81
2022-10-20T18:49:28.294Z,100904.25
2022-10-20T18:51:54.750Z,100906.84
2022-10-20T18:54:23.196Z,100895.53
2022-10-20T18:56:49.665Z,100901.59
2022-10-20T18:59:17.197Z,100896.38
2022-10-20T19:01:44.021Z,100898.09
2022-10-20T19:04:11.574Z,100890.31
2022-10-20T19:06:42.121Z,100879.03
2022-10-20T19:09:11.714Z,100868.63
2022-10-20T19:11:39.519Z,100872.03
2022-10-20T19:14:09.469Z,100866.00
2022-10-20T19:16:37.030Z,100861.53
2022-10-20T19:19:06.118Z,100859.81
2022-10-20T19:21:33.463Z,100857.97
2022-10-20T19:24:20.304Z,100849.34
2022-10-20T19:26:56.934Z,100844.13
2022-10-20T19:29:34.987Z,100852.69
2022-10-20T19:32:02.395Z,100844.88
2022-10-20T19:34:32.754Z,100837.88
2022-10-20T19:36:59.516Z,100844.66
2022-10-20T19:39:29.581Z,100834.22
2022-10-20T19:41:58.041Z,100831.63
2022-10-20T19:44:24.541Z,100834.16
2022-10-20T19:46:53.922Z,100829.84
2022-10-20T19:49:21.277Z,100830.72
2022-10-20T19:51:47.773Z,100829.06
2022-10-20T19:54:14.807Z,100831.56
2022-10-20T19:56:41.366Z,100826.41
2022-10-20T19:59:08.615Z,100824.66
2022-10-20T20:01:35.562Z,100818.63
2022-10-20T20:04:02.011Z,100820.34
2022-10-20T20:06:28.820Z,100813.38
2022-10-20T20:09:01.692Z,100821.06
2022-10-20T20:11:30.879Z,100806.31
2022-10-20T20:14:01.440Z,100805.44
2022-10-20T20:16:29.126Z,100809.69
2022-10-20T20:18:55.666Z,100812.31
2022-10-20T20:21:22.973Z,100810.53
2022-10-20T20:23:59.837Z,100814.03
2022-10-20T20:26:32.901Z,100794.91
2022-10-20T20:28:59.815Z,100788.75
2022-10-20T20:31:27.072Z,100791.41
2022-10-20T20:33:54.174Z,100786.13
2022-10-20T20:36:20.985Z,100791.25
2022-10-20T20:38:47.427Z,100788.56
2022-10-20T20:41:16.520Z,100790.13
2022-10-20T20:43:45.279Z,100782.16
2022-10-20T20:46:14.216Z,100781.13
2022-10-20T20:48:40.674Z,100781.88
2022-10-20T20:51:07.119Z,100786.06
2022-10-20T20:53:37.369Z,100796.38
2022-10-20T20:56:06.170Z,100799.69
2022-10-20T20:58:32.872Z,100784.94
2022-10-20T21:01:04.302Z,100789.22
2022-10-20T21:03:31.539Z,100809.03
2022-10-20T21:06:05.587Z,100808.97
2022-10-20T21:08:33.640Z,100818.50
2022-10-20T21:11:14.898Z,100808.94
2022-10-20T21:13:42.340Z,100803.69
2022-10-20T21:16:26.535Z,100806.25
2022-10-20T21:18:55.340Z,100812.28
2022-10-20T21:21:27.202Z,100813.97
2022-10-20T21:23:54.089Z,100800.13
2022-10-20T21:26:21.881Z,100816.53
2022-10-20T21:28:49.135Z,100813.94
2022-10-20T21:31:18.486Z,100813.88
2022-10-20T21:33:45.798Z,100809.47
2022-10-20T21:36:14.620Z,100809.38
2022-10-20T21:38:42.255Z,100812.81
2022-10-20T21:41:11.430Z,100804.09
2022-10-20T21:43:40.755Z,100799.69
2022-10-20T21:46:08.965Z,100804.03
2022-10-20T21:51:14.585Z,100805.63
2022-10-20T21:53:41.572Z,100804.78
2022-10-20T21:56:08.425Z,100794.38
2022-10-20T21:58:35.684Z,100784.84
2022-10-20T22:01:13.098Z,100778.81
2022-10-20T22:03:40.048Z,100771.91
2022-10-20T22:06:08.300Z,100764.13
2022-10-20T22:08:39.447Z,100759.75
2022-10-20T22:11:08.337Z,100749.31
2022-10-20T22:13:34.888Z,100751.03
2022-10-20T22:16:01.461Z,100746.72
2022-10-20T22:18:28.173Z,100745.84
2022-10-20T22:20:54.606Z,100744.97
2022-10-20T22:23:21.028Z,100749.28
2022-10-20T22:25:51.515Z,100750.16
2022-10-20T22:28:19.049Z,100743.16
2022-10-20T22:30:45.458Z,100750.16
2022-10-20T22:33:11.871Z,100748.34
2022-10-20T22:35:38.270Z,100740.56
2022-10-20T22:38:04.693Z,100738.88
2022-10-20T22:40:31.088Z,100732.78
2022-10-20T22:42:57.560Z,100738.06
2022-10-20T22:45:23.971Z,100735.44
2022-10-20T22:47:50.447Z,100735.44
2022-10-20T22:50:16.923Z,100737.22
2022-10-20T22:52:43.339Z,100725.13
2022-10-20T22:55:09.756Z,100733.78
2022-10-20T22:57:36.169Z,100752.00
2022-10-20T23:00:04.549Z,100749.38
2022-10-20T23:02:30.951Z,100751.13
2022-10-20T23:04:57.366Z,100748.53
2022-10-20T23:07:24.184Z,100754.66
2022-10-20T23:09:50.704Z,100735.66
2022-10-20T23:12:17.128Z,100729.56
2022-10-20T23:14:43.553Z,100727.81
2022-10-20T23:17:09.961Z,100744.28
2022-10-20T23:19:36.357Z,100762.50
2022-10-20T23:22:02.768Z,100775.53
2022-10-20T23:24:29.192Z,100753.91
2022-10-20T23:26:57.504Z,100763.47
2022-10-20T23:29:24.247Z,100772.16
2022-10-20T23:31:50.673Z,100768.81
2022-10-20T23:34:17.143Z,100764.50
2022-10-20T23:36:43.574Z,100763.66
2022-10-20T23:39:10.036Z,100766.34
2022-10-20T23:41:36.449Z,100752.47
2022-10-20T23:44:02.877Z,100763.78
2022-10-20T23:46:32.274Z,100759.47
2022-10-20T23:48:59.260Z,100745.66
2022-10-20T23:51:25.727Z,100738.75
2022-10-20T23:53:52.324Z,100745.56
2022-10-20T23:56:18.775Z,100745.66
2022-10-20T23:58:45.187Z,100739.59
